sensor_id;sensor_type;location;lat;lon;timestamp;temperature;humidity
17659;DHT22;8948;51.534;8.262;2022-09-09T00:02:36;17.40;66.70
17659;DHT22;8948;51.534;8.262;2022-09-09T00:23:28;17.60;66.80
17659;DHT22;8948;51.534;8.262;2022-09-09T00:28:33;17.60;67.10
17659;DHT22;8948;51.534;8.262;2022-09-09T00:33:36;17.60;66.30
17659;DHT22;8948;51.534;8.262;2022-09-09T00:38:43;17.60;66.20
17659;DHT22;8948;51.534;8.262;2022-09-09T00:43:56;17.60;66.50
17659;DHT22;8948;51.534;8.262;2022-09-09T00:49:18;17.50;67.20
17659;DHT22;8948;51.534;8.262;2022-09-09T00:59:45;17.50;67.40
17659;DHT22;8948;51.534;8.262;2022-09-09T01:04:46;17.50;67.20
17659;DHT22;8948;51.534;8.262;2022-09-09T01:10:03;17.60;66.90
17659;DHT22;8948;51.534;8.262;2022-09-09T01:15:16;17.50;67.30
17659;DHT22;8948;51.534;8.262;2022-09-09T01:20:30;17.60;67.10
17659;DHT22;8948;51.534;8.262;2022-09-09T01:26:14;17.60;66.90
17659;DHT22;8948;51.534;8.262;2022-09-09T01:31:51;17.50;66.60
17659;DHT22;8948;51.534;8.262;2022-09-09T01:37:04;17.50;66.30
17659;DHT22;8948;51.534;8.262;2022-09-09T01:42:09;17.40;66.20
17659;DHT22;8948;51.534;8.262;2022-09-09T01:47:10;17.40;66.20
17659;DHT22;8948;51.534;8.262;2022-09-09T01:52:10;17.40;66.10
17659;DHT22;8948;51.534;8.262;2022-09-09T01:57:19;17.30;66.10
17659;DHT22;8948;51.534;8.262;2022-09-09T02:07:48;17.30;67.00
17659;DHT22;8948;51.534;8.262;2022-09-09T02:12:54;17.30;66.80
17659;DHT22;8948;51.534;8.262;2022-09-09T02:17:57;17.30;66.70
17659;DHT22;8948;51.534;8.262;2022-09-09T02:22:59;17.20;67.00
17659;DHT22;8948;51.534;8.262;2022-09-09T02:28:04;17.10;67.30
17659;DHT22;8948;51.534;8.262;2022-09-09T02:33:07;17.10;67.90
17659;DHT22;8948;51.534;8.262;2022-09-09T02:38:12;17.10;67.80
17659;DHT22;8948;51.534;8.262;2022-09-09T02:43:14;17.00;67.90
17659;DHT22;8948;51.534;8.262;2022-09-09T02:48:26;17.00;68.50
17659;DHT22;8948;51.534;8.262;2022-09-09T02:58:51;16.90;69.40
17659;DHT22;8948;51.534;8.262;2022-09-09T03:03:52;16.90;69.00
17659;DHT22;8948;51.534;8.262;2022-09-09T03:08:53;16.90;69.40
17659;DHT22;8948;51.534;8.262;2022-09-09T03:13:54;16.90;69.50
17659;DHT22;8948;51.534;8.262;2022-09-09T03:18:56;16.90;69.60
17659;DHT22;8948;51.534;8.262;2022-09-09T03:23:56;16.80;69.90
17659;DHT22;8948;51.534;8.262;2022-09-09T03:28:57;16.90;70.00
17659;DHT22;8948;51.534;8.262;2022-09-09T03:34:00;16.90;69.70
17659;DHT22;8948;51.534;8.262;2022-09-09T03:39:01;16.90;69.80
17659;DHT22;8948;51.534;8.262;2022-09-09T03:44:03;16.90;69.60
17659;DHT22;8948;51.534;8.262;2022-09-09T03:49:04;16.90;69.70
17659;DHT22;8948;51.534;8.262;2022-09-09T03:54:04;16.80;69.70
17659;DHT22;8948;51.534;8.262;2022-09-09T03:59:08;16.80;69.60
17659;DHT22;8948;51.534;8.262;2022-09-09T04:04:11;16.80;69.70
17659;DHT22;8948;51.534;8.262;2022-09-09T04:09:12;16.80;69.60
17659;DHT22;8948;51.534;8.262;2022-09-09T04:14:13;16.70;69.90
17659;DHT22;8948;51.534;8.262;2022-09-09T04:19:13;16.60;70.10
17659;DHT22;8948;51.534;8.262;2022-09-09T04:24:14;16.60;70.50
17659;DHT22;8948;51.534;8.262;2022-09-09T04:29:16;16.50;70.20
17659;DHT22;8948;51.534;8.262;2022-09-09T04:34:17;16.50;70.30
17659;DHT22;8948;51.534;8.262;2022-09-09T04:39:18;16.50;70.40
17659;DHT22;8948;51.534;8.262;2022-09-09T04:44:19;16.50;70.20
17659;DHT22;8948;51.534;8.262;2022-09-09T04:49:20;16.50;70.30
17659;DHT22;8948;51.534;8.262;2022-09-09T04:54:21;16.60;70.60
17659;DHT22;8948;51.534;8.262;2022-09-09T04:59:22;16.70;70.00
17659;DHT22;8948;51.534;8.262;2022-09-09T05:04:22;16.70;70.10
17659;DHT22;8948;51.534;8.262;2022-09-09T05:09:23;16.80;70.20
17659;DHT22;8948;51.534;8.262;2022-09-09T05:14:23;16.80;70.00
17659;DHT22;8948;51.534;8.262;2022-09-09T05:19:24;16.90;69.90
17659;DHT22;8948;51.534;8.262;2022-09-09T05:24:24;17.00;69.60
17659;DHT22;8948;51.534;8.262;2022-09-09T05:29:25;17.00;69.70
17659;DHT22;8948;51.534;8.262;2022-09-09T05:34:26;17.10;69.40
17659;DHT22;8948;51.534;8.262;2022-09-09T05:39:27;17.20;69.10
17659;DHT22;8948;51.534;8.262;2022-09-09T05:44:27;17.20;68.90
17659;DHT22;8948;51.534;8.262;2022-09-09T05:49:29;17.40;68.50
17659;DHT22;8948;51.534;8.262;2022-09-09T05:54:30;17.40;68.50
17659;DHT22;8948;51.534;8.262;2022-09-09T05:59:30;17.50;68.40
17659;DHT22;8948;51.534;8.262;2022-09-09T06:04:32;17.50;67.70
17659;DHT22;8948;51.534;8.262;2022-09-09T06:09:33;17.50;67.90
17659;DHT22;8948;51.534;8.262;2022-09-09T06:14:33;17.60;67.80
17659;DHT22;8948;51.534;8.262;2022-09-09T06:19:34;17.60;68.00
17659;DHT22;8948;51.534;8.262;2022-09-09T06:24:34;17.70;68.00
17659;DHT22;8948;51.534;8.262;2022-09-09T06:29:35;17.70;67.60
17659;DHT22;8948;51.534;8.262;2022-09-09T06:34:35;17.80;67.50
17659;DHT22;8948;51.534;8.262;2022-09-09T06:39:37;17.90;67.40
17659;DHT22;8948;51.534;8.262;2022-09-09T06:44:37;17.90;66.90
17659;DHT22;8948;51.534;8.262;2022-09-09T06:49:38;18.00;67.00
17659;DHT22;8948;51.534;8.262;2022-09-09T06:54:38;18.10;66.40
17659;DHT22;8948;51.534;8.262;2022-09-09T06:59:39;18.20;66.70
17659;DHT22;8948;51.534;8.262;2022-09-09T07:04:39;18.20;65.90
17659;DHT22;8948;51.534;8.262;2022-09-09T07:09:40;18.10;65.40
17659;DHT22;8948;51.534;8.262;2022-09-09T07:14:40;18.00;65.80
17659;DHT22;8948;51.534;8.262;2022-09-09T07:19:41;18.10;65.70
17659;DHT22;8948;51.534;8.262;2022-09-09T07:24:43;18.00;65.90
17659;DHT22;8948;51.534;8.262;2022-09-09T07:29:45;18.00;65.50
17659;DHT22;8948;51.534;8.262;2022-09-09T07:34:46;18.00;65.00
17659;DHT22;8948;51.534;8.262;2022-09-09T07:39:47;18.00;65.00
17659;DHT22;8948;51.534;8.262;2022-09-09T07:44:47;17.90;65.40
17659;DHT22;8948;51.534;8.262;2022-09-09T07:49:48;18.00;65.80
17659;DHT22;8948;51.534;8.262;2022-09-09T07:54:50;18.60;64.50
17659;DHT22;8948;51.534;8.262;2022-09-09T07:59:50;19.50;63.10
17659;DHT22;8948;51.534;8.262;2022-09-09T08:04:52;19.90;61.50
17659;DHT22;8948;51.534;8.262;2022-09-09T08:09:52;20.20;61.40
17659;DHT22;8948;51.534;8.262;2022-09-09T08:14:54;20.40;61.90
17659;DHT22;8948;51.534;8.262;2022-09-09T08:19:55;20.10;61.30
17659;DHT22;8948;51.534;8.262;2022-09-09T08:24:55;19.90;61.90
17659;DHT22;8948;51.534;8.262;2022-09-09T08:29:56;20.50;61.70
17659;DHT22;8948;51.534;8.262;2022-09-09T08:34:57;20.70;59.70
17659;DHT22;8948;51.534;8.262;2022-09-09T08:39:57;20.70;59.50
17659;DHT22;8948;51.534;8.262;2022-09-09T08:50:25;20.30;59.10
17659;DHT22;8948;51.534;8.262;2022-09-09T08:55:50;20.50;58.90
17659;DHT22;8948;51.534;8.262;2022-09-09T09:11:56;20.50;56.00
17659;DHT22;8948;51.534;8.262;2022-09-09T09:17:04;20.90;56.00
17659;DHT22;8948;51.534;8.262;2022-09-09T09:22:32;21.80;54.60
17659;DHT22;8948;51.534;8.262;2022-09-09T09:32:57;22.40;50.50
17659;DHT22;8948;51.534;8.262;2022-09-09T09:37:59;23.00;50.70
17659;DHT22;8948;51.534;8.262;2022-09-09T09:43:01;23.10;50.70
17659;DHT22;8948;51.534;8.262;2022-09-09T09:48:08;23.50;49.00
17659;DHT22;8948;51.534;8.262;2022-09-09T09:53:22;23.40;50.90
17659;DHT22;8948;51.534;8.262;2022-09-09T09:58:26;23.30;48.80
17659;DHT22;8948;51.534;8.262;2022-09-09T10:03:29;23.80;48.60
17659;DHT22;8948;51.534;8.262;2022-09-09T10:08:34;23.80;48.20
17659;DHT22;8948;51.534;8.262;2022-09-09T10:19:04;24.90;46.70
17659;DHT22;8948;51.534;8.262;2022-09-09T10:24:39;24.50;44.00
17659;DHT22;8948;51.534;8.262;2022-09-09T10:35:09;24.40;45.00
17659;DHT22;8948;51.534;8.262;2022-09-09T10:45:20;23.60;48.10
17659;DHT22;8948;51.534;8.262;2022-09-09T10:50:51;23.40;47.20
17659;DHT22;8948;51.534;8.262;2022-09-09T10:56:06;23.30;48.40
17659;DHT22;8948;51.534;8.262;2022-09-09T11:01:59;24.20;44.90
17659;DHT22;8948;51.534;8.262;2022-09-09T11:06:39;25.40;44.00
17659;DHT22;8948;51.534;8.262;2022-09-09T11:11:54;25.60;42.40
17659;DHT22;8948;51.534;8.262;2022-09-09T11:17:04;26.20;42.60
17659;DHT22;8948;51.534;8.262;2022-09-09T11:22:27;26.40;40.70
17659;DHT22;8948;51.534;8.262;2022-09-09T11:43:43;26.90;40.00
17659;DHT22;8948;51.534;8.262;2022-09-09T11:48:45;26.90;39.60
17659;DHT22;8948;51.534;8.262;2022-09-09T11:59:06;26.20;40.90
17659;DHT22;8948;51.534;8.262;2022-09-09T12:09:19;26.00;41.00
17659;DHT22;8948;51.534;8.262;2022-09-09T12:14:37;26.00;41.10
17659;DHT22;8948;51.534;8.262;2022-09-09T12:19:38;25.50;40.60
17659;DHT22;8948;51.534;8.262;2022-09-09T12:25:00;25.20;42.40
17659;DHT22;8948;51.534;8.262;2022-09-09T12:30:14;26.80;40.20
17659;DHT22;8948;51.534;8.262;2022-09-09T12:35:26;27.80;36.10
17659;DHT22;8948;51.534;8.262;2022-09-09T12:40:30;27.90;36.90
17659;DHT22;8948;51.534;8.262;2022-09-09T12:45:33;28.20;36.80
17659;DHT22;8948;51.534;8.262;2022-09-09T12:50:47;28.10;35.40
17659;DHT22;8948;51.534;8.262;2022-09-09T12:55:58;27.90;35.40
17659;DHT22;8948;51.534;8.262;2022-09-09T13:01:00;27.80;35.90
17659;DHT22;8948;51.534;8.262;2022-09-09T13:06:16;26.90;37.50
17659;DHT22;8948;51.534;8.262;2022-09-09T13:11:49;27.00;37.70
17659;DHT22;8948;51.534;8.262;2022-09-09T13:16:56;27.20;36.30
17659;DHT22;8948;51.534;8.262;2022-09-09T13:21:57;27.10;37.10
17659;DHT22;8948;51.534;8.262;2022-09-09T13:27:22;26.50;37.90
17659;DHT22;8948;51.534;8.262;2022-09-09T13:32:25;26.50;38.00
17659;DHT22;8948;51.534;8.262;2022-09-09T13:37:37;26.50;38.60
17659;DHT22;8948;51.534;8.262;2022-09-09T13:42:40;27.40;37.00
17659;DHT22;8948;51.534;8.262;2022-09-09T13:47:42;27.40;37.00
17659;DHT22;8948;51.534;8.262;2022-09-09T13:52:43;26.80;38.00
17659;DHT22;8948;51.534;8.262;2022-09-09T14:02:51;26.30;38.60
17659;DHT22;8948;51.534;8.262;2022-09-09T14:07:52;26.50;38.20
17659;DHT22;8948;51.534;8.262;2022-09-09T14:12:53;26.50;38.80
17659;DHT22;8948;51.534;8.262;2022-09-09T14:17:53;27.70;37.60
17659;DHT22;8948;51.534;8.262;2022-09-09T14:22:54;28.10;37.10
17659;DHT22;8948;51.534;8.262;2022-09-09T14:27:54;27.70;37.30
17659;DHT22;8948;51.534;8.262;2022-09-09T14:32:56;27.10;37.60
17659;DHT22;8948;51.534;8.262;2022-09-09T14:37:57;28.20;36.50
17659;DHT22;8948;51.534;8.262;2022-09-09T14:42:57;28.00;36.20
17659;DHT22;8948;51.534;8.262;2022-09-09T14:47:58;27.20;37.20
17659;DHT22;8948;51.534;8.262;2022-09-09T14:52:59;26.50;38.30
17659;DHT22;8948;51.534;8.262;2022-09-09T14:58:00;25.80;39.00
17659;DHT22;8948;51.534;8.262;2022-09-09T15:03:01;25.30;39.80
17659;DHT22;8948;51.534;8.262;2022-09-09T15:08:01;25.40;40.40
17659;DHT22;8948;51.534;8.262;2022-09-09T15:13:02;25.30;40.20
17659;DHT22;8948;51.534;8.262;2022-09-09T15:18:03;25.10;40.40
17659;DHT22;8948;51.534;8.262;2022-09-09T15:23:03;24.90;41.10
17659;DHT22;8948;51.534;8.262;2022-09-09T15:28:04;25.20;41.00
17659;DHT22;8948;51.534;8.262;2022-09-09T15:33:08;25.50;40.90
17659;DHT22;8948;51.534;8.262;2022-09-09T15:38:08;25.40;40.10
17659;DHT22;8948;51.534;8.262;2022-09-09T15:43:09;25.10;40.80
17659;DHT22;8948;51.534;8.262;2022-09-09T15:48:11;24.90;41.00
17659;DHT22;8948;51.534;8.262;2022-09-09T15:53:11;24.30;42.70
17659;DHT22;8948;51.534;8.262;2022-09-09T15:58:12;23.70;47.40
17659;DHT22;8948;51.534;8.262;2022-09-09T16:03:13;23.40;49.40
17659;DHT22;8948;51.534;8.262;2022-09-09T16:08:13;23.40;50.80
17659;DHT22;8948;51.534;8.262;2022-09-09T16:13:14;23.50;50.90
17659;DHT22;8948;51.534;8.262;2022-09-09T16:18:14;23.40;51.80
17659;DHT22;8948;51.534;8.262;2022-09-09T16:23:15;23.40;52.20
17659;DHT22;8948;51.534;8.262;2022-09-09T16:28:16;23.20;51.70
17659;DHT22;8948;51.534;8.262;2022-09-09T16:33:17;23.30;52.10
17659;DHT22;8948;51.534;8.262;2022-09-09T16:38:17;23.20;52.80
17659;DHT22;8948;51.534;8.262;2022-09-09T16:43:18;23.20;53.10
17659;DHT22;8948;51.534;8.262;2022-09-09T16:48:19;23.00;53.00
17659;DHT22;8948;51.534;8.262;2022-09-09T16:53:20;22.80;53.40
17659;DHT22;8948;51.534;8.262;2022-09-09T16:58:21;22.80;53.90
17659;DHT22;8948;51.534;8.262;2022-09-09T17:03:21;22.40;54.00
17659;DHT22;8948;51.534;8.262;2022-09-09T17:08:22;22.10;54.80
17659;DHT22;8948;51.534;8.262;2022-09-09T17:13:23;21.40;55.50
17659;DHT22;8948;51.534;8.262;2022-09-09T17:18:26;20.90;56.20
17659;DHT22;8948;51.534;8.262;2022-09-09T17:23:28;20.70;57.40
17659;DHT22;8948;51.534;8.262;2022-09-09T17:28:29;20.80;57.40
17659;DHT22;8948;51.534;8.262;2022-09-09T17:33:36;20.70;58.60
17659;DHT22;8948;51.534;8.262;2022-09-09T17:38:37;20.90;58.30
17659;DHT22;8948;51.534;8.262;2022-09-09T17:43:38;20.90;58.40
17659;DHT22;8948;51.534;8.262;2022-09-09T17:48:40;20.50;59.10
17659;DHT22;8948;51.534;8.262;2022-09-09T17:53:44;20.00;60.40
17659;DHT22;8948;51.534;8.262;2022-09-09T17:58:45;19.70;61.50
17659;DHT22;8948;51.534;8.262;2022-09-09T18:03:46;19.40;62.20
17659;DHT22;8948;51.534;8.262;2022-09-09T18:08:53;19.30;62.30
17659;DHT22;8948;51.534;8.262;2022-09-09T18:13:56;19.10;63.30
17659;DHT22;8948;51.534;8.262;2022-09-09T18:18:57;18.90;63.90
17659;DHT22;8948;51.534;8.262;2022-09-09T18:24:00;18.80;64.10
17659;DHT22;8948;51.534;8.262;2022-09-09T18:29:03;18.80;63.90
17659;DHT22;8948;51.534;8.262;2022-09-09T18:34:07;18.90;63.90
17659;DHT22;8948;51.534;8.262;2022-09-09T18:39:10;18.70;65.00
17659;DHT22;8948;51.534;8.262;2022-09-09T18:44:14;18.60;65.10
17659;DHT22;8948;51.534;8.262;2022-09-09T18:49:16;18.70;64.30
17659;DHT22;8948;51.534;8.262;2022-09-09T18:54:19;18.50;64.50
17659;DHT22;8948;51.534;8.262;2022-09-09T18:59:22;18.60;64.50
17659;DHT22;8948;51.534;8.262;2022-09-09T19:04:23;18.50;64.10
17659;DHT22;8948;51.534;8.262;2022-09-09T19:09:27;18.40;64.40
17659;DHT22;8948;51.534;8.262;2022-09-09T19:14:29;18.20;65.00
17659;DHT22;8948;51.534;8.262;2022-09-09T19:19:31;17.90;65.30
17659;DHT22;8948;51.534;8.262;2022-09-09T19:24:33;17.80;65.50
17659;DHT22;8948;51.534;8.262;2022-09-09T19:29:36;17.70;65.90
17659;DHT22;8948;51.534;8.262;2022-09-09T19:34:38;17.50;65.70
17659;DHT22;8948;51.534;8.262;2022-09-09T19:39:39;17.50;66.20
17659;DHT22;8948;51.534;8.262;2022-09-09T19:44:40;17.40;66.40
17659;DHT22;8948;51.534;8.262;2022-09-09T19:49:41;17.40;66.30
17659;DHT22;8948;51.534;8.262;2022-09-09T19:54:41;17.30;66.60
17659;DHT22;8948;51.534;8.262;2022-09-09T19:59:42;17.30;67.00
17659;DHT22;8948;51.534;8.262;2022-09-09T20:04:43;17.20;67.60
17659;DHT22;8948;51.534;8.262;2022-09-09T20:09:43;17.10;67.60
17659;DHT22;8948;51.534;8.262;2022-09-09T20:14:44;17.00;68.00
17659;DHT22;8948;51.534;8.262;2022-09-09T20:19:44;17.00;67.80
17659;DHT22;8948;51.534;8.262;2022-09-09T20:24:45;17.00;67.80
17659;DHT22;8948;51.534;8.262;2022-09-09T20:29:46;17.00;67.90
17659;DHT22;8948;51.534;8.262;2022-09-09T20:34:47;16.90;68.40
17659;DHT22;8948;51.534;8.262;2022-09-09T20:39:47;16.80;68.90
17659;DHT22;8948;51.534;8.262;2022-09-09T20:44:48;16.80;68.80
17659;DHT22;8948;51.534;8.262;2022-09-09T20:49:48;16.80;69.00
17659;DHT22;8948;51.534;8.262;2022-09-09T20:54:49;16.80;69.40
17659;DHT22;8948;51.534;8.262;2022-09-09T20:59:50;16.80;69.10
17659;DHT22;8948;51.534;8.262;2022-09-09T21:04:51;16.80;69.30
17659;DHT22;8948;51.534;8.262;2022-09-09T21:09:51;16.80;69.70
17659;DHT22;8948;51.534;8.262;2022-09-09T21:14:52;16.90;69.10
17659;DHT22;8948;51.534;8.262;2022-09-09T21:19:52;17.00;69.40
17659;DHT22;8948;51.534;8.262;2022-09-09T21:24:53;17.10;68.60
17659;DHT22;8948;51.534;8.262;2022-09-09T21:29:54;17.10;68.40
17659;DHT22;8948;51.534;8.262;2022-09-09T21:34:54;17.20;68.20
17659;DHT22;8948;51.534;8.262;2022-09-09T21:39:56;17.20;68.00
17659;DHT22;8948;51.534;8.262;2022-09-09T21:44:56;17.10;68.30
17659;DHT22;8948;51.534;8.262;2022-09-09T21:49:57;17.10;68.50
17659;DHT22;8948;51.534;8.262;2022-09-09T21:54:59;17.00;68.50
17659;DHT22;8948;51.534;8.262;2022-09-09T21:59:59;16.90;68.90
17659;DHT22;8948;51.534;8.262;2022-09-09T22:05:00;16.70;69.40
17659;DHT22;8948;51.534;8.262;2022-09-09T22:10:01;16.60;69.60
17659;DHT22;8948;51.534;8.262;2022-09-09T22:15:02;16.60;69.90
17659;DHT22;8948;51.534;8.262;2022-09-09T22:20:03;16.60;69.80
17659;DHT22;8948;51.534;8.262;2022-09-09T22:25:05;16.50;69.80
17659;DHT22;8948;51.534;8.262;2022-09-09T22:30:07;16.50;70.10
17659;DHT22;8948;51.534;8.262;2022-09-09T22:35:08;16.40;70.80
17659;DHT22;8948;51.534;8.262;2022-09-09T22:40:08;16.40;70.20
17659;DHT22;8948;51.534;8.262;2022-09-09T22:45:10;16.40;70.60
17659;DHT22;8948;51.534;8.262;2022-09-09T22:50:11;16.30;70.60
17659;DHT22;8948;51.534;8.262;2022-09-09T22:55:11;16.40;70.30
17659;DHT22;8948;51.534;8.262;2022-09-09T23:00:12;16.40;70.60
17659;DHT22;8948;51.534;8.262;2022-09-09T23:05:13;16.40;70.50
17659;DHT22;8948;51.534;8.262;2022-09-09T23:10:13;16.40;70.50
17659;DHT22;8948;51.534;8.262;2022-09-09T23:15:14;16.50;70.60
17659;DHT22;8948;51.534;8.262;2022-09-09T23:20:17;16.60;70.60
17659;DHT22;8948;51.534;8.262;2022-09-09T23:25:18;16.70;70.20
17659;DHT22;8948;51.534;8.262;2022-09-09T23:30:19;16.70;70.40
17659;DHT22;8948;51.534;8.262;2022-09-09T23:35:21;16.70;70.40
17659;DHT22;8948;51.534;8.262;2022-09-09T23:40:21;16.80;70.20
17659;DHT22;8948;51.534;8.262;2022-09-09T23:45:22;16.70;70.30
17659;DHT22;8948;51.534;8.262;2022-09-09T23:50:23;16.70;70.10
17659;DHT22;8948;51.534;8.262;2022-09-09T23:55:24;16.70;70.00
